Time;durP1;ratioP1;P1;durP2;ratioP2;P2;SDS_P1;SDS_P2;PMS_P1;PMS_P2;Temp;Humidity;BMP_temperature;BMP_pressure;BME280_temperature;BME280_humidity;BME280_pressure;Samples;Min_cycle;Max_cycle;Signal;HPM_P1;HPM_P2
2021/10/13 00:00:56;;;;;;;2.03;0.60;;;9.50;90.70;;;;;;2076304;28;20058;-90
2021/10/13 00:02:16;;;;;;;2.15;0.50;;;9.60;90.70;;;;;;2083529;28;20041;-91
2021/10/13 00:03:35;;;;;;;0.95;0.50;;;9.60;90.70;;;;;;2084551;28;20042;-90
2021/10/13 00:04:55;;;;;;;1.13;0.50;;;9.60;90.70;;;;;;2075378;28;20104;-90
2021/10/13 00:06:14;;;;;;;1.40;0.52;;;9.60;91.00;;;;;;2061625;28;20057;-90
2021/10/13 00:07:34;;;;;;;3.67;0.60;;;9.50;90.70;;;;;;2063511;28;20038;-89
2021/10/13 00:08:53;;;;;;;1.00;0.50;;;9.60;90.80;;;;;;2071764;28;20026;-89
2021/10/13 00:10:12;;;;;;;1.08;0.60;;;9.50;90.80;;;;;;2059749;28;20502;-90
2021/10/13 00:11:33;;;;;;;0.85;0.50;;;9.50;90.80;;;;;;2064960;28;20034;-90
2021/10/13 00:12:52;;;;;;;1.13;0.50;;;9.50;90.90;;;;;;2075296;28;20435;-90
2021/10/13 00:14:11;;;;;;;2.55;0.60;;;9.50;90.90;;;;;;2075514;28;20026;-90
2021/10/13 00:15:31;;;;;;;1.02;0.60;;;9.40;90.90;;;;;;2082582;28;20034;-90
2021/10/13 00:17:03;;;;;;;1.88;1.08;;;9.40;91.00;;;;;;2082756;28;20426;-88
2021/10/13 00:18:22;;;;;;;1.85;0.60;;;9.40;91.00;;;;;;2075289;28;20042;-91
2021/10/13 00:19:41;;;;;;;1.88;0.55;;;9.30;91.00;;;;;;2068096;28;20034;-90
2021/10/13 00:21:01;;;;;;;2.67;0.80;;;9.30;91.10;;;;;;2068401;28;20034;-90
2021/10/13 00:22:20;;;;;;;1.60;0.52;;;9.30;91.10;;;;;;2063755;28;20070;-90
2021/10/13 00:23:39;;;;;;;2.15;0.63;;;9.20;91.40;;;;;;2076111;28;20025;-90
2021/10/13 00:24:58;;;;;;;1.23;0.50;;;9.20;91.20;;;;;;2076346;28;20038;-89
2021/10/13 00:26:17;;;;;;;1.88;0.77;;;9.20;91.20;;;;;;2071603;28;20408;-90
2021/10/13 00:27:37;;;;;;;1.10;0.60;;;9.20;91.20;;;;;;2071342;28;20427;-90
2021/10/13 00:28:56;;;;;;;2.45;0.60;;;9.20;91.30;;;;;;2074988;28;20104;-90
2021/10/13 00:30:16;;;;;;;1.20;0.63;;;9.10;91.20;;;;;;2074919;28;20049;-89
2021/10/13 00:31:35;;;;;;;1.20;0.45;;;9.10;91.30;;;;;;2078778;28;20037;-90
2021/10/13 00:32:54;;;;;;;2.08;0.60;;;9.10;91.30;;;;;;2075059;28;20034;-90
2021/10/13 00:34:15;;;;;;;3.38;0.70;;;9.10;91.30;;;;;;2075057;28;20034;-90
2021/10/13 00:35:34;;;;;;;0.70;0.40;;;9.10;91.30;;;;;;2075466;28;20104;-90
2021/10/13 00:36:53;;;;;;;1.92;0.80;;;9.10;91.30;;;;;;2075078;28;20025;-90
2021/10/13 00:38:12;;;;;;;4.60;0.70;;;9.10;91.30;;;;;;2074975;28;20042;-90
2021/10/13 00:39:32;;;;;;;1.15;0.50;;;9.10;91.30;;;;;;2059717;28;20066;-89
2021/10/13 00:40:51;;;;;;;2.30;0.95;;;9.10;91.30;;;;;;2069256;28;20029;-89
2021/10/13 00:42:11;;;;;;;2.22;0.60;;;9.10;91.30;;;;;;2078193;28;20029;-90
2021/10/13 00:43:30;;;;;;;1.90;0.50;;;9.10;91.30;;;;;;2073353;28;20061;-90
2021/10/13 00:44:49;;;;;;;3.92;0.60;;;9.10;91.30;;;;;;2073911;28;20033;-90
2021/10/13 00:46:09;;;;;;;2.65;0.85;;;9.10;91.30;;;;;;2078080;28;20141;-90
2021/10/13 00:47:28;;;;;;;4.13;0.80;;;9.10;91.30;;;;;;2076105;28;20034;-90
2021/10/13 00:48:47;;;;;;;2.03;0.65;;;9.00;91.30;;;;;;2074519;28;20026;-90
2021/10/13 00:50:11;;;;;;;2.33;0.70;;;9.00;91.30;;;;;;2063038;28;20485;-90
2021/10/13 00:51:31;;;;;;;2.42;0.63;;;9.00;91.30;;;;;;2067330;28;20042;-90
2021/10/13 00:52:50;;;;;;;2.85;1.23;;;9.10;91.60;;;;;;2063371;28;20420;-90
2021/10/13 00:54:10;;;;;;;2.83;0.82;;;9.00;91.30;;;;;;2068319;28;20508;-90
2021/10/13 00:55:30;;;;;;;2.92;0.60;;;9.00;91.40;;;;;;2068719;28;20420;-90
2021/10/13 00:56:50;;;;;;;;;;;9.00;91.40;;;;;;2075217;28;20423;-90
2021/10/13 00:58:09;;;;;;;2.33;0.50;;;9.00;91.30;;;;;;2075197;28;19986;-89
2021/10/13 00:59:28;;;;;;;2.58;0.70;;;9.00;91.30;;;;;;2074818;28;20033;-90
2021/10/13 01:00:56;;;;;;;2.22;0.60;;;9.10;91.30;;;;;;2074861;28;20572;-90
2021/10/13 01:02:29;;;;;;;2.28;0.70;;;9.10;91.30;;;;;;2074605;28;20480;-90
2021/10/13 01:04:10;;;;;;;1.58;0.63;;;9.10;91.30;;;;;;2076067;28;20030;-90
2021/10/13 01:05:49;;;;;;;1.98;0.70;;;9.10;91.30;;;;;;2074626;28;20030;-90
2021/10/13 01:07:29;;;;;;;2.20;0.68;;;9.10;91.30;;;;;;2074842;28;20041;-90
2021/10/13 01:09:02;;;;;;;1.02;0.50;;;9.10;91.30;;;;;;2074921;28;20025;-89
2021/10/13 01:10:27;;;;;;;1.80;0.60;;;9.10;91.30;;;;;;2077423;28;20037;-89
2021/10/13 01:12:04;;;;;;;3.25;0.75;;;9.10;91.30;;;;;;2075414;28;20033;-89
2021/10/13 01:13:36;;;;;;;2.50;0.60;;;9.10;91.30;;;;;;2074169;28;20072;-89
2021/10/13 01:15:06;;;;;;;1.27;0.60;;;9.10;91.30;;;;;;2078799;28;20038;-90
2021/10/13 01:16:42;;;;;;;1.98;0.60;;;9.20;91.30;;;;;;2074420;28;20587;-90
2021/10/13 01:18:27;;;;;;;3.05;0.80;;;9.10;91.20;;;;;;2073352;28;20137;-89
2021/10/13 01:19:46;;;;;;;1.63;0.63;;;9.10;91.30;;;;;;2074818;28;20105;-90
2021/10/13 01:21:43;;;;;;;2.75;0.63;;;9.20;91.30;;;;;;2075083;28;20063;-89
2021/10/13 01:23:17;;;;;;;2.38;0.80;;;9.20;91.30;;;;;;2074894;28;20062;-91
2021/10/13 01:25:03;;;;;;;2.30;0.70;;;9.20;91.30;;;;;;2074596;28;20042;-91
2021/10/13 01:26:31;;;;;;;1.30;0.70;;;9.20;91.20;;;;;;2074820;28;20025;-90
2021/10/13 01:27:53;;;;;;;0.75;0.43;;;9.20;91.20;;;;;;2079793;28;20033;-89
2021/10/13 01:29:15;;;;;;;2.72;0.90;;;9.20;91.20;;;;;;2079730;28;20104;-90
2021/10/13 01:30:41;;;;;;;2.05;0.60;;;9.20;91.30;;;;;;2081031;28;20408;-89
2021/10/13 01:32:14;;;;;;;3.30;0.55;;;9.20;91.30;;;;;;2075217;28;20472;-89
2021/10/13 01:33:39;;;;;;;1.60;0.60;;;9.20;91.30;;;;;;2081571;28;20026;-89
2021/10/13 01:35:00;;;;;;;2.05;0.70;;;9.30;91.30;;;;;;2083010;28;20030;-90
2021/10/13 01:36:25;;;;;;;1.75;0.80;;;9.30;91.30;;;;;;2083211;28;20053;-90
2021/10/13 01:37:49;;;;;;;1.85;0.75;;;9.30;91.60;;;;;;2082380;28;20484;-90
2021/10/13 01:39:10;;;;;;;2.53;0.60;;;9.30;91.40;;;;;;2075928;28;20022;-88
2021/10/13 01:40:31;;;;;;;1.42;0.60;;;9.20;91.40;;;;;;2083861;28;20443;-89
2021/10/13 01:41:52;;;;;;;2.53;0.85;;;9.20;91.40;;;;;;2077399;28;20025;-89
2021/10/13 01:43:12;;;;;;;;;;;9.20;91.40;;;;;;2075023;28;20034;-89
2021/10/13 01:44:34;;;;;;;1.60;0.50;;;9.20;91.40;;;;;;2074839;28;19952;-89
2021/10/13 01:45:55;;;;;;;2.95;0.68;;;9.20;91.40;;;;;;2082886;28;20021;-90
2021/10/13 01:47:17;;;;;;;1.27;0.70;;;9.20;91.40;;;;;;2082194;28;20140;-89
2021/10/13 01:48:38;;;;;;;1.27;0.70;;;9.10;91.40;;;;;;2078178;28;20057;-90
2021/10/13 01:49:57;;;;;;;2.80;0.60;;;9.10;91.40;;;;;;2077161;28;20057;-90
2021/10/13 01:51:18;;;;;;;2.35;0.68;;;9.10;91.50;;;;;;2074653;28;20042;-90
2021/10/13 01:52:38;;;;;;;3.25;0.80;;;9.10;91.50;;;;;;2066136;28;20030;-91
2021/10/13 01:54:00;;;;;;;3.83;0.70;;;9.10;91.50;;;;;;2072342;28;20022;-89
2021/10/13 01:55:21;;;;;;;2.28;0.68;;;9.10;91.50;;;;;;2087275;28;20029;-90
2021/10/13 01:56:41;;;;;;;;;;;9.10;91.50;;;;;;2084610;28;20026;-90
2021/10/13 01:58:03;;;;;;;2.33;0.70;;;9.10;91.50;;;;;;2080451;28;19921;-90
2021/10/13 01:59:23;;;;;;;1.20;0.50;;;9.00;91.50;;;;;;2080001;28;20042;-89
2021/10/13 02:00:47;;;;;;;4.32;1.02;;;9.00;91.50;;;;;;2086357;28;20029;-90
2021/10/13 02:02:08;;;;;;;1.08;0.50;;;9.00;91.50;;;;;;2081110;28;20068;-89
2021/10/13 02:03:30;;;;;;;1.98;0.70;;;9.00;91.50;;;;;;2074827;28;20439;-90
2021/10/13 02:04:50;;;;;;;1.20;0.60;;;9.00;91.60;;;;;;2081295;28;20030;-90
2021/10/13 02:06:09;;;;;;;3.03;0.70;;;9.00;91.60;;;;;;2076053;28;20029;-90
2021/10/13 02:07:30;;;;;;;2.22;0.77;;;8.90;91.60;;;;;;2079446;28;20408;-88
2021/10/13 02:08:56;;;;;;;1.13;0.55;;;9.00;91.60;;;;;;2082064;28;20026;-89
2021/10/13 02:10:17;;;;;;;2.83;0.73;;;8.90;91.70;;;;;;2075428;28;20046;-89
2021/10/13 02:11:36;;;;;;;2.10;0.70;;;8.90;91.70;;;;;;2074135;28;20041;-90
2021/10/13 02:12:59;;;;;;;2.75;0.70;;;8.90;91.70;;;;;;2074413;28;20066;-89
2021/10/13 02:14:21;;;;;;;3.10;0.70;;;8.90;91.70;;;;;;2074515;28;20053;-89
2021/10/13 02:15:42;;;;;;;1.67;0.70;;;8.90;91.70;;;;;;2074341;28;20412;-90
2021/10/13 02:17:02;;;;;;;3.13;0.73;;;8.90;91.70;;;;;;2074183;28;20034;-90
2021/10/13 02:18:28;;;;;;;2.35;0.80;;;9.00;91.80;;;;;;2074821;28;20396;-89
2021/10/13 02:19:48;;;;;;;3.95;0.80;;;9.00;91.80;;;;;;2079567;28;20025;-90
2021/10/13 02:21:08;;;;;;;2.38;0.52;;;8.90;91.80;;;;;;2072685;28;20037;-89
2021/10/13 02:22:32;;;;;;;1.85;0.70;;;8.90;91.80;;;;;;2074388;28;20532;-90
2021/10/13 02:23:55;;;;;;;2.47;0.80;;;8.90;91.80;;;;;;2074371;28;20034;-90
2021/10/13 02:25:15;;;;;;;3.30;0.60;;;8.90;91.80;;;;;;2075061;28;20022;-89
2021/10/13 02:26:42;;;;;;;1.88;1.02;;;9.00;91.80;;;;;;2075849;28;20038;-90
2021/10/13 02:28:06;;;;;;;1.02;0.55;;;8.90;91.80;;;;;;2082524;28;20029;-89
2021/10/13 02:29:26;;;;;;;2.10;0.60;;;8.90;91.80;;;;;;2074286;28;20484;-89
2021/10/13 02:30:45;;;;;;;4.22;0.70;;;9.00;91.80;;;;;;2071943;28;20468;-90
2021/10/13 02:32:07;;;;;;;2.30;0.63;;;9.00;91.80;;;;;;2077024;28;20112;-90
2021/10/13 02:33:27;;;;;;;2.38;0.80;;;9.00;92.10;;;;;;2074310;28;20084;-89
2021/10/13 02:34:48;;;;;;;2.28;0.70;;;9.00;91.80;;;;;;2074077;28;20030;-90
2021/10/13 02:36:07;;;;;;;1.23;0.57;;;9.00;91.80;;;;;;2070882;28;20452;-90
2021/10/13 02:37:26;;;;;;;1.83;0.70;;;9.00;91.80;;;;;;2070221;28;20050;-90
2021/10/13 02:38:45;;;;;;;3.13;0.80;;;9.10;91.80;;;;;;2072439;28;23513;-90
2021/10/13 02:40:05;;;;;;;2.60;0.80;;;9.10;91.80;;;;;;2073883;28;20026;-90
2021/10/13 02:41:25;;;;;;;1.15;0.80;;;9.10;91.80;;;;;;2074136;28;20038;-89
2021/10/13 02:42:44;;;;;;;1.85;0.70;;;9.10;91.70;;;;;;2073755;28;20500;-89
2021/10/13 02:44:05;;;;;;;1.40;0.70;;;9.10;91.70;;;;;;2078766;28;20029;-89
2021/10/13 02:45:24;;;;;;;1.95;1.08;;;9.20;91.80;;;;;;2072823;28;20033;-90
2021/10/13 02:46:53;;;;;;;1.38;0.70;;;9.20;91.70;;;;;;2067394;28;20038;-88
2021/10/13 02:48:19;;;;;;;2.35;0.73;;;9.20;91.70;;;;;;2079389;28;20034;-90
2021/10/13 02:49:44;;;;;;;1.50;0.68;;;9.20;91.70;;;;;;2078255;28;20042;-89
2021/10/13 02:51:13;;;;;;;2.38;0.70;;;9.20;91.70;;;;;;2075779;28;20515;-90
2021/10/13 02:52:41;;;;;;;2.42;0.70;;;9.30;91.70;;;;;;2081356;28;20045;-90
2021/10/13 02:54:10;;;;;;;2.67;0.60;;;9.30;91.70;;;;;;2082376;28;20026;-90
2021/10/13 02:55:44;;;;;;;2.10;0.70;;;9.30;91.70;;;;;;2074289;28;20037;-89
2021/10/13 02:57:05;;;;;;;1.85;0.60;;;9.30;91.70;;;;;;2073963;28;20042;-89
2021/10/13 02:58:42;;;;;;;1.10;0.45;;;9.30;91.70;;;;;;2074108;28;20034;-90
2021/10/13 03:00:04;;;;;;;1.92;0.80;;;9.30;91.70;;;;;;2079747;28;20026;-89
2021/10/13 03:01:29;;;;;;;2.42;0.80;;;9.30;91.70;;;;;;2075587;28;20030;-90
2021/10/13 03:03:08;;;;;;;2.00;0.75;;;9.30;91.70;;;;;;2074135;28;20492;-90
2021/10/13 03:04:33;;;;;;;2.47;0.80;;;9.30;91.70;;;;;;2073988;28;20033;-89
2021/10/13 03:05:54;;;;;;;1.45;0.60;;;9.30;91.70;;;;;;2073678;28;20026;-90
2021/10/13 03:07:20;;;;;;;1.52;0.70;;;9.30;91.70;;;;;;2078096;28;20029;-90
2021/10/13 03:08:42;;;;;;;2.05;0.70;;;9.30;91.70;;;;;;2073881;28;20022;-90
2021/10/13 03:10:04;;;;;;;1.73;0.73;;;9.30;91.70;;;;;;2074259;28;20030;-90
2021/10/13 03:11:27;;;;;;;1.98;0.75;;;9.30;91.70;;;;;;2075809;28;20444;-90
2021/10/13 03:12:53;;;;;;;1.23;0.63;;;9.30;91.70;;;;;;2074652;28;20042;-90
2021/10/13 03:14:17;;;;;;;1.75;0.60;;;9.40;91.80;;;;;;2081730;28;20026;-91
2021/10/13 03:15:41;;;;;;;1.20;0.52;;;9.30;91.70;;;;;;2075866;28;20503;-90
2021/10/13 03:17:02;;;;;;;3.50;0.70;;;9.30;91.70;;;;;;2073578;28;20034;-90
2021/10/13 03:18:23;;;;;;;1.38;0.60;;;9.30;91.70;;;;;;2073255;28;20046;-90
2021/10/13 03:19:43;;;;;;;;;;;9.30;91.70;;;;;;2074280;28;20069;-89
2021/10/13 03:21:03;;;;;;;2.67;1.05;;;9.30;91.70;;;;;;2073953;28;19914;-90
2021/10/13 03:22:25;;;;;;;2.97;0.70;;;9.30;91.70;;;;;;2075059;28;20038;-90
2021/10/13 03:23:44;;;;;;;2.20;0.55;;;9.40;91.70;;;;;;2082156;28;20033;-90
2021/10/13 03:25:04;;;;;;;1.25;0.60;;;9.30;91.70;;;;;;2073621;28;20046;-90
2021/10/13 03:26:23;;;;;;;3.33;0.80;;;9.40;91.70;;;;;;2072531;28;20059;-90
2021/10/13 03:27:43;;;;;;;3.25;0.60;;;9.40;91.70;;;;;;2073997;28;20034;-90
2021/10/13 03:29:03;;;;;;;1.15;0.60;;;9.40;91.70;;;;;;2076541;28;20038;-90
2021/10/13 03:30:22;;;;;;;2.25;0.75;;;9.40;91.70;;;;;;2086307;28;20026;-90
2021/10/13 03:31:41;;;;;;;1.95;0.68;;;9.40;91.70;;;;;;2073485;28;20030;-90
2021/10/13 03:33:01;;;;;;;1.77;0.55;;;9.40;91.60;;;;;;2078694;28;20038;-89
2021/10/13 03:34:20;;;;;;;2.05;0.68;;;9.40;91.60;;;;;;2073402;28;20117;-91
2021/10/13 03:35:39;;;;;;;1.90;0.70;;;9.40;91.60;;;;;;2073924;28;20042;-90
2021/10/13 03:36:58;;;;;;;1.73;0.70;;;9.50;91.60;;;;;;2073500;28;20041;-90
2021/10/13 03:38:18;;;;;;;1.40;0.68;;;9.50;91.60;;;;;;2073768;28;20539;-90
2021/10/13 03:39:37;;;;;;;1.15;0.50;;;9.50;91.60;;;;;;2075554;28;20038;-88
2021/10/13 03:40:57;;;;;;;1.90;0.63;;;9.50;91.60;;;;;;2075388;28;20046;-89
2021/10/13 03:42:16;;;;;;;;;;;9.50;91.60;;;;;;2075896;28;20034;-90
2021/10/13 03:43:46;;;;;;;2.17;0.60;;;9.60;91.60;;;;;;2075732;28;19909;-89
2021/10/13 03:45:05;;;;;;;2.15;0.57;;;9.60;91.50;;;;;;2079214;28;20025;-89
2021/10/13 03:46:24;;;;;;;1.40;0.65;;;9.50;91.50;;;;;;2075377;28;20077;-90
2021/10/13 03:47:45;;;;;;;2.97;0.65;;;9.50;91.50;;;;;;2068660;28;20038;-89
2021/10/13 03:49:04;;;;;;;1.08;0.60;;;9.60;91.60;;;;;;2077332;28;20037;-90
2021/10/13 03:50:23;;;;;;;1.88;0.57;;;9.50;91.50;;;;;;2078148;28;20046;-89
2021/10/13 03:51:43;;;;;;;2.15;0.68;;;9.60;91.60;;;;;;2074980;28;20489;-90
2021/10/13 03:53:02;;;;;;;2.83;0.88;;;9.60;91.60;;;;;;2071974;28;20026;-89
2021/10/13 03:54:21;;;;;;;1.75;0.70;;;9.50;91.60;;;;;;2079883;28;20029;-90
2021/10/13 03:55:41;;;;;;;1.88;0.63;;;9.50;91.60;;;;;;2078353;28;20037;-89
2021/10/13 03:57:00;;;;;;;2.38;0.70;;;9.60;91.60;;;;;;2074793;28;20057;-89
2021/10/13 03:58:19;;;;;;;2.42;0.80;;;9.50;91.60;;;;;;2075123;28;20420;-90
2021/10/13 03:59:38;;;;;;;1.40;0.50;;;9.60;91.60;;;;;;2074762;28;20037;-89
2021/10/13 04:00:57;;;;;;;2.65;0.70;;;9.60;91.60;;;;;;2077442;28;20033;-90
2021/10/13 04:02:16;;;;;;;3.38;0.95;;;9.50;91.60;;;;;;2082765;28;20029;-90
2021/10/13 04:03:36;;;;;;;2.38;0.60;;;9.60;91.60;;;;;;2083235;28;20108;-90
2021/10/13 04:04:56;;;;;;;2.28;0.60;;;9.50;91.60;;;;;;2079091;28;20022;-90
2021/10/13 04:06:15;;;;;;;1.67;0.60;;;9.60;91.60;;;;;;2077995;28;20037;-90
2021/10/13 04:07:34;;;;;;;2.63;0.85;;;9.60;91.60;;;;;;2088669;28;20037;-90
2021/10/13 04:08:53;;;;;;;2.25;0.60;;;9.60;91.70;;;;;;2075343;28;20057;-90
2021/10/13 04:10:14;;;;;;;1.33;0.60;;;9.60;91.60;;;;;;2075053;28;20042;-90
2021/10/13 04:11:33;;;;;;;1.27;0.60;;;9.60;91.70;;;;;;2080683;28;20124;-89
2021/10/13 04:12:53;;;;;;;1.92;0.73;;;9.60;91.70;;;;;;2083132;28;20041;-89
2021/10/13 04:14:12;;;;;;;1.65;0.47;;;9.60;91.70;;;;;;2083228;28;20112;-89
2021/10/13 04:15:31;;;;;;;1.73;0.70;;;9.60;91.70;;;;;;2066811;28;20489;-90
2021/10/13 04:16:50;;;;;;;1.10;0.60;;;9.60;91.70;;;;;;2071470;28;20038;-89
2021/10/13 04:18:09;;;;;;;1.50;0.60;;;9.60;91.70;;;;;;2074382;28;20064;-89
2021/10/13 04:19:29;;;;;;;1.70;0.60;;;9.60;91.70;;;;;;2074037;28;20428;-90
2021/10/13 04:20:48;;;;;;;1.88;0.70;;;9.60;91.70;;;;;;2071058;28;20037;-90
2021/10/13 04:22:07;;;;;;;1.80;0.50;;;9.60;91.70;;;;;;2071534;28;20030;-90
2021/10/13 04:23:26;;;;;;;2.38;0.70;;;9.60;91.70;;;;;;2072254;28;20045;-89
2021/10/13 04:24:45;;;;;;;0.82;0.50;;;9.60;91.70;;;;;;2082759;28;20101;-89
2021/10/13 04:26:05;;;;;;;2.17;0.70;;;9.60;91.90;;;;;;2076518;28;20516;-90
2021/10/13 04:27:24;;;;;;;1.63;0.60;;;9.60;91.70;;;;;;2080911;28;20109;-89
2021/10/13 04:28:43;;;;;;;1.98;0.70;;;9.60;91.70;;;;;;2083245;28;20033;-89
2021/10/13 04:30:05;;;;;;;3.97;1.10;;;9.60;91.70;;;;;;2081808;28;20076;-89
2021/10/13 04:31:24;;;;;;;1.75;0.70;;;9.60;91.70;;;;;;2083255;28;20488;-89
2021/10/13 04:32:44;;;;;;;2.10;0.60;;;9.60;91.70;;;;;;2082808;28;20034;-88
2021/10/13 04:34:03;;;;;;;2.35;0.50;;;9.60;91.70;;;;;;2072991;28;20034;-90
2021/10/13 04:35:23;;;;;;;2.25;0.60;;;9.50;91.70;;;;;;2074974;28;20033;-89
2021/10/13 04:36:42;;;;;;;2.15;0.98;;;9.60;91.80;;;;;;2074353;28;20033;-89
2021/10/13 04:38:07;;;;;;;2.35;0.80;;;9.60;91.80;;;;;;2071264;28;20419;-90
2021/10/13 04:39:27;;;;;;;2.13;0.75;;;9.50;91.80;;;;;;2078285;28;20502;-90
2021/10/13 04:40:46;;;;;;;3.35;0.70;;;9.50;91.80;;;;;;2076261;28;20063;-90
2021/10/13 04:42:05;;;;;;;2.58;0.60;;;9.50;91.80;;;;;;2076187;28;20033;-89
2021/10/13 04:43:24;;;;;;;1.17;0.70;;;9.50;92.10;;;;;;2078674;28;20085;-88
2021/10/13 04:44:43;;;;;;;2.60;0.70;;;9.40;91.80;;;;;;2079482;28;20037;-90
2021/10/13 04:46:02;;;;;;;2.55;0.70;;;9.40;91.90;;;;;;2076484;28;20108;-87
2021/10/13 04:47:22;;;;;;;2.83;0.80;;;9.40;91.90;;;;;;2082637;28;20041;-88
2021/10/13 04:48:40;;;;;;;1.13;0.70;;;9.30;91.90;;;;;;2087349;28;20037;-89
2021/10/13 04:49:59;;;;;;;1.70;0.85;;;9.40;92.00;;;;;;2081037;28;20064;-88
2021/10/13 04:51:18;;;;;;;2.67;1.00;;;9.30;92.00;;;;;;2082539;28;20033;-88
2021/10/13 04:52:38;;;;;;;2.30;0.70;;;9.30;92.00;;;;;;2081220;28;20038;-89
2021/10/13 04:53:57;;;;;;;1.77;0.80;;;9.30;92.00;;;;;;2081936;28;20022;-89
2021/10/13 04:55:17;;;;;;;2.13;0.80;;;9.30;92.00;;;;;;2077254;28;20026;-89
2021/10/13 04:56:37;;;;;;;2.78;0.90;;;9.30;92.00;;;;;;2071521;28;20508;-88
2021/10/13 04:57:56;;;;;;;2.20;1.05;;;9.30;92.00;;;;;;2076533;28;20038;-88
2021/10/13 04:59:15;;;;;;;2.05;0.88;;;9.30;92.10;;;;;;2077099;28;20129;-88
2021/10/13 05:00:34;;;;;;;1.83;0.90;;;9.20;92.10;;;;;;2085177;28;20064;-87
2021/10/13 05:01:54;;;;;;;2.97;1.10;;;9.20;92.10;;;;;;2082066;28;20034;-87
2021/10/13 05:03:13;;;;;;;1.95;0.90;;;9.20;92.10;;;;;;2077223;28;20038;-88
2021/10/13 05:04:32;;;;;;;2.30;1.05;;;9.20;92.10;;;;;;2075173;28;20042;-88
2021/10/13 05:05:51;;;;;;;2.20;0.80;;;9.20;92.10;;;;;;2066271;28;20042;-88
2021/10/13 05:07:11;;;;;;;2.00;0.80;;;9.10;92.10;;;;;;2071558;28;20061;-88
2021/10/13 05:08:30;;;;;;;1.80;0.80;;;9.10;92.10;;;;;;2074749;28;20038;-88
2021/10/13 05:09:49;;;;;;;1.60;0.77;;;9.10;92.10;;;;;;2075077;28;20033;-88
2021/10/13 05:11:08;;;;;;;2.30;1.30;;;9.10;92.10;;;;;;2074166;28;20033;-89
2021/10/13 05:12:27;;;;;;;2.35;0.80;;;9.10;92.10;;;;;;2075511;28;20116;-89
2021/10/13 05:13:46;;;;;;;2.03;0.70;;;9.10;92.20;;;;;;2073012;28;20030;-88
2021/10/13 05:15:06;;;;;;;2.13;0.65;;;9.10;92.20;;;;;;2074708;28;20037;-89
2021/10/13 05:16:26;;;;;;;1.40;0.60;;;9.00;92.10;;;;;;2075017;28;20046;-89
2021/10/13 05:17:45;;;;;;;2.60;0.70;;;9.00;92.10;;;;;;2074146;28;20053;-88
2021/10/13 05:19:04;;;;;;;1.92;0.80;;;9.00;92.20;;;;;;2063012;28;20117;-89
2021/10/13 05:20:24;;;;;;;2.47;0.98;;;9.00;92.20;;;;;;2062722;28;20509;-88
2021/10/13 05:21:44;;;;;;;1.50;0.70;;;8.90;92.20;;;;;;2071436;28;20038;-89
2021/10/13 05:23:04;;;;;;;1.63;0.60;;;8.90;92.20;;;;;;2058237;28;20031;-88
2021/10/13 05:24:23;;;;;;;2.53;0.90;;;8.90;92.20;;;;;;2065280;28;20038;-88
2021/10/13 05:25:42;;;;;;;2.05;0.70;;;8.90;92.20;;;;;;2062574;28;20027;-89
2021/10/13 05:27:02;;;;;;;1.00;0.60;;;8.90;92.20;;;;;;2067168;28;20081;-89
2021/10/13 05:28:21;;;;;;;2.22;0.60;;;8.90;92.30;;;;;;2077762;28;20045;-89
2021/10/13 05:29:40;;;;;;;3.45;0.65;;;8.90;92.20;;;;;;2062277;28;20034;-89
2021/10/13 05:30:59;;;;;;;1.63;0.70;;;8.80;92.50;;;;;;2072677;28;20045;-88
2021/10/13 05:32:18;;;;;;;2.60;0.65;;;8.80;92.30;;;;;;2078379;28;20033;-88
2021/10/13 05:33:38;;;;;;;1.70;0.77;;;8.80;92.30;;;;;;2070557;28;20042;-89
2021/10/13 05:34:57;;;;;;;1.83;0.60;;;8.80;92.30;;;;;;2078390;28;20029;-89
2021/10/13 05:36:16;;;;;;;1.42;0.50;;;8.80;92.30;;;;;;2082283;28;20029;-88
2021/10/13 05:37:36;;;;;;;1.20;0.57;;;8.80;92.30;;;;;;2078281;28;20049;-88
2021/10/13 05:38:56;;;;;;;1.33;0.50;;;8.80;92.30;;;;;;2082599;28;20034;-88
2021/10/13 05:40:15;;;;;;;1.00;0.70;;;8.80;92.30;;;;;;2082392;28;20025;-89
2021/10/13 05:41:34;;;;;;;1.50;0.55;;;8.80;92.30;;;;;;2070802;28;20439;-89
2021/10/13 05:42:53;;;;;;;1.85;0.65;;;8.80;92.30;;;;;;2078534;28;20033;-89
2021/10/13 05:44:13;;;;;;;1.92;0.57;;;8.80;92.30;;;;;;2082186;28;20033;-89
2021/10/13 05:45:32;;;;;;;1.73;0.60;;;8.80;92.30;;;;;;2076858;28;20069;-89
2021/10/13 05:46:51;;;;;;;2.80;0.80;;;8.80;92.30;;;;;;2064700;28;20505;-89
2021/10/13 05:48:10;;;;;;;2.30;0.80;;;8.80;92.30;;;;;;2067135;28;20030;-89
2021/10/13 05:49:29;;;;;;;2.10;0.93;;;8.80;92.30;;;;;;2079303;28;20093;-89
2021/10/13 05:50:49;;;;;;;2.83;0.90;;;8.80;92.30;;;;;;2073999;28;20073;-89
2021/10/13 05:52:08;;;;;;;1.77;0.68;;;8.80;92.30;;;;;;2077031;28;20546;-89
2021/10/13 05:53:29;;;;;;;2.13;0.55;;;8.80;92.30;;;;;;2080535;28;20476;-89
2021/10/13 05:54:48;;;;;;;;;;;8.80;92.30;;;;;;2082780;28;20038;-89
2021/10/13 05:56:07;;;;;;;2.22;0.70;;;8.80;92.20;;;;;;2073979;28;19917;-89
2021/10/13 05:57:26;;;;;;;2.17;0.70;;;8.80;92.20;;;;;;2077394;28;20475;-90
2021/10/13 05:58:47;;;;;;;2.83;0.70;;;8.80;92.20;;;;;;2080918;28;20029;-89
2021/10/13 06:00:07;;;;;;;1.42;0.70;;;8.90;92.20;;;;;;2082517;28;20057;-89
2021/10/13 06:01:27;;;;;;;1.88;0.70;;;8.90;92.20;;;;;;2080763;28;20029;-89
2021/10/13 06:02:46;;;;;;;2.03;0.60;;;8.90;92.20;;;;;;2070725;28;20045;-89
2021/10/13 06:04:05;;;;;;;2.30;0.60;;;8.90;92.20;;;;;;2078833;28;20053;-89
2021/10/13 06:05:25;;;;;;;2.15;0.60;;;8.90;92.20;;;;;;2082744;28;20033;-89
2021/10/13 06:06:44;;;;;;;1.80;0.50;;;8.90;92.20;;;;;;2079950;28;20444;-88
2021/10/13 06:08:04;;;;;;;1.65;0.60;;;9.00;92.20;;;;;;2081924;28;20033;-89
2021/10/13 06:09:23;;;;;;;2.63;0.73;;;9.00;92.20;;;;;;2082055;28;20037;-89
2021/10/13 06:10:42;;;;;;;1.10;0.60;;;9.00;92.20;;;;;;2079240;28;20045;-89
2021/10/13 06:12:02;;;;;;;2.63;0.70;;;9.00;92.20;;;;;;2074878;28;20034;-89
2021/10/13 06:13:21;;;;;;;4.72;0.98;;;9.10;92.20;;;;;;2074150;28;20488;-88
2021/10/13 06:14:40;;;;;;;2.55;0.60;;;9.10;92.20;;;;;;2082372;28;20026;-89
2021/10/13 06:16:00;;;;;;;1.98;0.60;;;9.10;92.10;;;;;;2081479;28;20037;-89
2021/10/13 06:17:20;;;;;;;2.72;0.70;;;9.10;92.10;;;;;;2075148;28;20081;-89
2021/10/13 06:18:40;;;;;;;1.48;0.70;;;9.20;92.10;;;;;;2066608;28;20046;-88
2021/10/13 06:20:00;;;;;;;3.28;0.57;;;9.20;92.10;;;;;;2075960;28;20458;-89
2021/10/13 06:21:20;;;;;;;1.20;0.52;;;9.20;92.10;;;;;;2078735;28;20476;-89
2021/10/13 06:22:39;;;;;;;;;;;9.20;92.10;;;;;;2082925;28;20033;-89
2021/10/13 06:23:59;;;;;;;2.47;0.55;;;9.20;92.00;;;;;;2079965;28;19921;-89
2021/10/13 06:25:18;;;;;;;2.67;0.90;;;9.30;92.00;;;;;;2074231;28;20026;-89
2021/10/13 06:26:37;;;;;;;1.42;0.63;;;9.30;92.00;;;;;;2073725;28;20045;-88
2021/10/13 06:27:56;;;;;;;2.35;0.60;;;9.30;92.00;;;;;;2074780;28;20041;-89
2021/10/13 06:29:15;;;;;;;2.88;0.73;;;9.30;92.00;;;;;;2077424;28;20026;-91
2021/10/13 06:30:37;;;;;;;2.33;0.65;;;9.40;92.00;;;;;;2076386;28;20038;-89
2021/10/13 06:31:56;;;;;;;2.88;0.68;;;9.40;92.00;;;;;;2065400;28;20038;-87
2021/10/13 06:33:15;;;;;;;1.50;0.63;;;9.40;92.00;;;;;;2070853;28;20107;-83
2021/10/13 06:34:34;;;;;;;1.80;0.68;;;9.40;92.00;;;;;;2078335;28;20033;-85
2021/10/13 06:35:55;;;;;;;1.40;0.57;;;9.40;91.90;;;;;;2080825;28;20104;-88
2021/10/13 06:37:14;;;;;;;2.75;0.65;;;9.50;92.00;;;;;;2079539;28;20112;-90
2021/10/13 06:38:34;;;;;;;1.70;0.70;;;9.50;92.00;;;;;;2078005;28;20029;-89
2021/10/13 06:39:53;;;;;;;1.52;0.70;;;9.50;92.00;;;;;;2081594;28;20480;-89
2021/10/13 06:41:13;;;;;;;2.10;0.70;;;9.50;91.90;;;;;;2073539;28;20033;-89
2021/10/13 06:42:32;;;;;;;2.60;0.55;;;9.50;91.90;;;;;;2070492;28;20029;-90
2021/10/13 06:43:51;;;;;;;3.35;0.80;;;9.60;91.90;;;;;;2074066;28;20038;-89
2021/10/13 06:45:12;;;;;;;1.52;0.70;;;9.60;91.90;;;;;;2071936;28;20089;-88
2021/10/13 06:46:31;;;;;;;1.77;0.70;;;9.60;91.90;;;;;;2070692;28;20034;-89
2021/10/13 06:47:50;;;;;;;2.17;0.65;;;9.60;91.90;;;;;;2073995;28;20041;-85
2021/10/13 06:49:09;;;;;;;1.85;0.60;;;9.60;91.90;;;;;;2073609;28;20034;-90
2021/10/13 06:50:28;;;;;;;2.00;0.80;;;9.60;91.90;;;;;;2077637;28;20529;-90
2021/10/13 06:51:47;;;;;;;1.33;0.60;;;9.70;91.90;;;;;;2073152;28;20034;-89
2021/10/13 06:53:07;;;;;;;1.40;0.70;;;9.70;91.90;;;;;;2073783;28;20049;-89
2021/10/13 06:54:26;;;;;;;1.65;0.70;;;9.70;91.90;;;;;;2066019;28;20460;-90
2021/10/13 06:55:45;;;;;;;1.65;0.60;;;9.70;91.90;;;;;;2078799;28;20057;-90
2021/10/13 06:57:05;;;;;;;2.88;0.80;;;9.80;91.90;;;;;;2078589;28;21122;-89
2021/10/13 06:58:24;;;;;;;1.55;0.70;;;9.80;91.90;;;;;;2073863;28;20480;-90
2021/10/13 06:59:44;;;;;;;3.13;1.00;;;9.80;91.90;;;;;;2081159;28;20029;-89
2021/10/13 07:01:03;;;;;;;1.45;0.60;;;9.80;91.90;;;;;;2082746;28;20480;-88
2021/10/13 07:02:23;;;;;;;1.73;0.65;;;9.80;91.90;;;;;;2082695;28;20562;-89
2021/10/13 07:03:42;;;;;;;3.47;0.90;;;9.80;91.90;;;;;;2082867;28;20033;-89
2021/10/13 07:05:01;;;;;;;3.25;0.82;;;9.80;91.90;;;;;;2081517;28;20491;-89
2021/10/13 07:06:21;;;;;;;2.30;0.88;;;9.80;91.90;;;;;;2081853;28;20415;-89
2021/10/13 07:07:45;;;;;;;3.72;1.00;;;9.80;91.90;;;;;;2076882;28;20038;-89
2021/10/13 07:09:04;;;;;;;2.72;0.98;;;9.90;91.90;;;;;;2074019;28;20104;-89